Time;durP1;ratioP1;P1;durP2;ratioP2;P2;SDS_P1;SDS_P2;PMS_P1;PMS_P2;Temp;Humidity;BMP_temperature;BMP_pressure;BME280_temperature;BME280_humidity;BME280_pressure;Samples;Min_cycle;Max_cycle;Signal;HPM_P1;HPM_P2
2022/11/25 00:00:29;;;;;;;;;;;8.60;99.90;;;;;;5039709;28;20023;-81
2022/11/25 00:02:56;;;;;;;;;;;8.60;99.90;;;;;;5036112;28;20054;-83
2022/11/25 00:05:22;;;;;;;;;;;8.60;99.90;;;;;;5056501;28;19938;-81
2022/11/25 00:07:49;;;;;;;;;;;8.60;99.90;;;;;;5035605;28;19936;-79
2022/11/25 00:10:16;;;;;;;;;;;8.70;99.90;;;;;;5034730;28;19932;-80
2022/11/25 00:12:43;;;;;;;;;;;8.70;99.90;;;;;;5035810;28;19925;-79
2022/11/25 00:15:12;;;;;;;;;;;8.70;99.90;;;;;;5053976;28;19928;-79
2022/11/25 00:17:39;;;;;;;;;;;8.70;99.90;;;;;;5034578;28;19924;-79
2022/11/25 00:20:06;;;;;;;;;;;8.70;99.90;;;;;;5036601;28;19948;-80
2022/11/25 00:22:33;;;;;;;;;;;8.80;99.90;;;;;;5036802;28;20253;-80
2022/11/25 00:25:00;;;;;;;;;;;8.80;99.90;;;;;;5037019;28;20024;-80
2022/11/25 00:27:28;;;;;;;;;;;8.80;99.90;;;;;;5036890;28;19925;-80
2022/11/25 00:29:54;;;;;;;;;;;8.80;99.90;;;;;;5036879;28;20295;-80
2022/11/25 00:32:23;;;;;;;;;;;8.80;99.90;;;;;;5037031;28;20407;-80
2022/11/25 00:34:50;;;;;;;;;;;8.80;99.90;;;;;;5036092;28;19933;-80
2022/11/25 00:37:17;;;;;;;;;;;8.90;99.90;;;;;;5034267;28;19928;-79
2022/11/25 00:39:44;;;;;;;;;;;8.90;99.90;;;;;;5036715;28;19943;-80
2022/11/25 00:44:58;;;;;;;;;;;8.80;99.90;;;;;;5037463;28;19944;-79
2022/11/25 00:47:26;;;;;;;;;;;8.80;99.90;;;;;;5031091;28;19929;-80
2022/11/25 00:49:54;;;;;;;;;;;8.80;99.90;;;;;;5050745;28;20311;-80
2022/11/25 00:52:22;;;;;;;;;;;8.90;99.90;;;;;;5034118;28;19928;-80
2022/11/25 00:54:49;;;;;;;;;;;8.80;99.90;;;;;;5033833;28;19935;-80
2022/11/25 00:57:19;;;;;;;;;;;8.80;99.90;;;;;;5032922;28;20394;-81
2022/11/25 00:59:46;;;;;;;;;;;8.80;99.90;;;;;;5033253;28;19981;-79
2022/11/25 01:02:13;;;;;;;;;;;8.80;99.90;;;;;;5050181;28;19947;-79
2022/11/25 01:04:42;;;;;;;;;;;8.80;99.90;;;;;;5050380;28;19932;-79
2022/11/25 01:07:09;;;;;;;;;;;8.90;99.90;;;;;;5050623;28;19956;-79
2022/11/25 01:09:36;;;;;;;;;;;8.90;99.90;;;;;;5033298;28;19936;-78
2022/11/25 01:12:04;;;;;;;;;;;8.90;99.90;;;;;;5032813;28;19935;-79
2022/11/25 01:14:31;;;;;;;;;;;9.00;99.90;;;;;;5031808;28;20000;-78
2022/11/25 01:16:58;;;;;;;;;;;9.00;99.90;;;;;;5032100;28;19929;-80
2022/11/25 01:19:25;;;;;;;;;;;9.10;99.90;;;;;;5031051;28;19932;-79
2022/11/25 01:21:53;;;;;;;;;;;9.20;99.90;;;;;;5031285;28;19928;-78
2022/11/25 01:24:21;;;;;;;;;;;9.30;99.90;;;;;;5050509;28;19928;-79
2022/11/25 01:26:47;;;;;;;;;;;9.40;99.90;;;;;;5031081;28;19936;-80
2022/11/25 01:29:16;;;;;;;;;;;9.40;99.90;;;;;;5031305;28;19924;-78
2022/11/25 01:31:43;;;;;;;;;;;9.40;99.90;;;;;;5050477;28;20345;-79
2022/11/25 01:34:13;;;;;;;;;;;9.40;99.90;;;;;;5046227;28;19925;-80
2022/11/25 01:36:39;;;;;;;;;;;9.50;99.90;;;;;;5049663;28;19925;-80
2022/11/25 01:39:08;;;;;;;;;;;9.50;99.90;;;;;;5052223;28;19932;-81
2022/11/25 01:41:36;;;;;;;;;;;9.60;99.90;;;;;;5032042;28;19931;-82
2022/11/25 01:44:07;;;;;;;;;;;9.50;99.90;;;;;;5024277;28;20440;-82
2022/11/25 01:46:42;;;;;;;;;;;9.60;99.90;;;;;;5049016;28;19935;-79
2022/11/25 01:49:12;;;;;;;;;;;9.60;99.90;;;;;;5049924;28;19940;-79
2022/11/25 01:51:41;;;;;;;;;;;9.60;99.90;;;;;;5032880;28;20438;-80
2022/11/25 01:54:10;;;;;;;;;;;9.70;99.90;;;;;;5051211;28;19929;-79
2022/11/25 01:56:39;;;;;;;;;;;9.70;99.90;;;;;;5031830;28;20352;-79
2022/11/25 01:59:06;;;;;;;;;;;9.70;99.90;;;;;;5030737;28;19928;-79
2022/11/25 02:01:35;;;;;;;;;;;9.70;99.90;;;;;;5031039;28;19929;-79
2022/11/25 02:04:03;;;;;;;;;;;9.70;99.90;;;;;;5048207;28;19943;-79
2022/11/25 02:06:33;;;;;;;;;;;9.70;99.90;;;;;;5048426;28;19974;-80
2022/11/25 02:09:02;;;;;;;;;;;9.80;99.90;;;;;;5051049;28;19931;-80
2022/11/25 02:11:31;;;;;;;;;;;9.80;99.90;;;;;;5045688;28;20509;-81
2022/11/25 02:13:59;;;;;;;;;;;9.80;99.90;;;;;;5052091;28;19974;-82
2022/11/25 02:16:27;;;;;;;;;;;9.80;99.90;;;;;;5034906;28;19950;-83
2022/11/25 02:18:54;;;;;;;;;;;9.80;99.90;;;;;;5050112;28;19954;-81
2022/11/25 02:21:25;;;;;;;;;;;9.80;99.90;;;;;;5031071;28;20319;-79
2022/11/25 02:23:54;;;;;;;;;;;9.90;99.90;;;;;;5031661;28;19948;-79
2022/11/25 02:26:23;;;;;;;;;;;9.90;99.90;;;;;;5032248;28;19998;-80
2022/11/25 02:28:51;;;;;;;;;;;10.00;99.90;;;;;;5032172;28;20343;-82
2022/11/25 02:31:19;;;;;;;;;;;10.00;99.90;;;;;;5032963;28;19928;-80
2022/11/25 02:33:46;;;;;;;;;;;10.00;99.90;;;;;;5033155;28;20331;-79
2022/11/25 02:36:14;;;;;;;;;;;10.00;99.90;;;;;;5029816;28;19929;-80
2022/11/25 02:38:43;;;;;;;;;;;10.00;99.90;;;;;;5024309;28;19929;-79
2022/11/25 02:41:12;;;;;;;;;;;10.10;99.90;;;;;;5030158;28;20368;-79
2022/11/25 02:43:41;;;;;;;;;;;10.00;99.90;;;;;;5030309;28;20328;-79
2022/11/25 02:46:09;;;;;;;;;;;10.10;99.90;;;;;;5030698;28;19929;-78
2022/11/25 02:48:37;;;;;;;;;;;10.10;99.90;;;;;;5048313;28;19955;-77
2022/11/25 02:51:04;;;;;;;;;;;10.10;99.90;;;;;;5036661;28;19929;-78
2022/11/25 02:53:31;;;;;;;;;;;10.10;99.90;;;;;;5030806;28;19928;-79
2022/11/25 02:55:59;;;;;;;;;;;10.10;99.90;;;;;;5031225;28;19932;-79
2022/11/25 02:58:26;;;;;;;;;;;10.10;99.90;;;;;;5031411;28;19940;-78
2022/11/25 03:00:55;;;;;;;;;;;10.10;99.90;;;;;;5032387;28;20019;-79
2022/11/25 03:03:22;;;;;;;;;;;10.10;99.90;;;;;;5033804;28;19925;-79
2022/11/25 03:05:49;;;;;;;;;;;10.10;99.90;;;;;;5050170;28;20694;-79
2022/11/25 03:08:16;;;;;;;;;;;10.10;99.90;;;;;;5035140;28;19928;-79
2022/11/25 03:10:43;;;;;;;;;;;10.20;99.90;;;;;;5034640;28;19933;-79
2022/11/25 03:13:10;;;;;;;;;;;10.20;99.90;;;;;;5034882;28;20035;-79
2022/11/25 03:15:39;;;;;;;;;;;10.20;99.90;;;;;;5034949;28;19940;-79
2022/11/25 03:18:08;;;;;;;;;;;10.20;99.90;;;;;;5034005;28;19925;-79
2022/11/25 03:20:36;;;;;;;;;;;10.30;99.90;;;;;;5036120;28;19929;-79
2022/11/25 03:23:03;;;;;;;;;;;10.20;99.90;;;;;;5027601;28;19936;-79
2022/11/25 03:25:31;;;;;;;;;;;10.20;99.90;;;;;;5043183;28;19988;-79
2022/11/25 03:27:58;;;;;;;;;;;10.20;99.90;;;;;;5034101;28;19947;-78
2022/11/25 03:30:26;;;;;;;;;;;10.20;99.90;;;;;;5033678;28;20465;-79
2022/11/25 03:32:56;;;;;;;;;;;10.30;99.90;;;;;;5034421;28;19925;-78
2022/11/25 03:35:27;;;;;;;;;;;10.30;99.90;;;;;;5033181;28;19962;-78
2022/11/25 03:37:54;;;;;;;;;;;10.30;99.90;;;;;;5036306;28;19980;-80
2022/11/25 03:40:21;;;;;;;;;;;10.30;99.90;;;;;;5037662;28;19971;-80
2022/11/25 03:42:49;;;;;;;;;;;10.20;99.90;;;;;;5039372;28;19944;-80
2022/11/25 03:45:17;;;;;;;;;;;10.30;99.90;;;;;;5037162;28;20403;-80
2022/11/25 03:47:46;;;;;;;;;;;10.40;99.90;;;;;;5036688;28;19933;-80
2022/11/25 03:50:13;;;;;;;;;;;10.40;99.90;;;;;;5037288;28;20003;-80
2022/11/25 03:52:42;;;;;;;;;;;10.40;99.90;;;;;;5037479;28;19933;-78
2022/11/25 03:55:11;;;;;;;;;;;10.40;99.90;;;;;;5037929;28;20024;-80
2022/11/25 03:57:40;;;;;;;;;;;10.40;99.90;;;;;;5038078;28;19929;-80
2022/11/25 04:00:08;;;;;;;;;;;10.40;99.90;;;;;;5037317;28;19936;-80
2022/11/25 04:02:56;;;;;;;;;;;10.40;99.90;;;;;;5038738;28;19929;-81
2022/11/25 04:05:23;;;;;;;;;;;10.40;99.90;;;;;;5037010;28;19925;-80
2022/11/25 04:07:52;;;;;;;;;;;10.40;99.90;;;;;;5039489;28;19929;-80
2022/11/25 04:10:19;;;;;;;;;;;10.40;99.90;;;;;;5057950;28;19929;-79
2022/11/25 04:12:45;;;;;;;;;;;10.30;99.90;;;;;;5032867;28;19944;-79
2022/11/25 04:15:15;;;;;;;;;;;10.20;99.90;;;;;;5053939;28;19936;-80
2022/11/25 04:17:43;;;;;;;;;;;10.20;99.90;;;;;;5036007;28;19956;-83
2022/11/25 04:20:11;;;;;;;;;;;10.20;99.90;;;;;;5038299;28;19929;-82
2022/11/25 04:22:41;;;;;;;;;;;10.10;99.90;;;;;;5038283;28;20027;-80
2022/11/25 04:25:11;;;;;;;;;;;10.10;99.90;;;;;;5037929;28;19929;-81
2022/11/25 04:27:39;;;;;;;;;;;10.10;99.90;;;;;;5038684;28;19924;-81
2022/11/25 04:30:07;;;;;;;;;;;10.00;99.90;;;;;;5039038;28;19951;-82
2022/11/25 04:32:38;;;;;;;;;;;10.00;99.90;;;;;;5037302;28;20365;-83
2022/11/25 04:35:07;;;;;;;;;;;10.00;99.90;;;;;;5036390;28;20012;-80
2022/11/25 04:37:34;;;;;;;;;;;10.00;99.90;;;;;;5054968;28;19929;-81
2022/11/25 04:40:01;;;;;;;;;;;10.00;99.90;;;;;;5048162;28;19980;-81
2022/11/25 04:42:31;;;;;;;;;;;9.90;99.90;;;;;;5035814;28;19951;-81
2022/11/25 04:45:01;;;;;;;;;;;10.00;99.90;;;;;;5051824;28;20011;-80
2022/11/25 04:47:29;;;;;;;;;;;9.90;99.90;;;;;;5033384;28;20495;-80
2022/11/25 04:49:56;;;;;;;;;;;9.90;99.90;;;;;;5033625;28;20429;-81
2022/11/25 04:52:24;;;;;;;;;;;9.90;99.90;;;;;;5051391;28;20016;-81
2022/11/25 04:54:52;;;;;;;;;;;9.90;99.90;;;;;;5039101;28;20047;-80
2022/11/25 04:57:19;;;;;;;;;;;9.90;99.90;;;;;;5033343;28;20019;-80
2022/11/25 04:59:47;;;;;;;;;;;9.90;99.90;;;;;;5051144;28;19932;-80
2022/11/25 05:02:15;;;;;;;;;;;9.90;99.90;;;;;;5034133;28;19924;-80
2022/11/25 05:04:47;;;;;;;;;;;9.80;99.90;;;;;;5034199;28;19928;-80
2022/11/25 05:07:15;;;;;;;;;;;9.80;99.90;;;;;;5033412;28;19929;-80
2022/11/25 05:09:44;;;;;;;;;;;9.80;99.90;;;;;;5033952;28;19928;-79
2022/11/25 05:12:20;;;;;;;;;;;9.80;99.90;;;;;;5032349;28;20415;-80
2022/11/25 05:14:49;;;;;;;;;;;9.80;99.90;;;;;;5027023;28;20042;-80
2022/11/25 05:17:17;;;;;;;;;;;9.80;99.90;;;;;;5033268;28;19928;-80
2022/11/25 05:19:45;;;;;;;;;;;9.80;99.90;;;;;;5032740;28;19925;-80
2022/11/25 05:22:14;;;;;;;;;;;9.80;99.90;;;;;;5033777;28;19929;-80
2022/11/25 05:24:43;;;;;;;;;;;9.80;99.90;;;;;;5033636;28;19929;-80
2022/11/25 05:27:11;;;;;;;;;;;9.70;99.90;;;;;;5032643;28;19936;-79
2022/11/25 05:29:38;;;;;;;;;;;9.80;99.90;;;;;;5026251;28;19929;-80
2022/11/25 05:32:08;;;;;;;;;;;9.80;99.90;;;;;;5031880;28;19969;-79
2022/11/25 05:34:37;;;;;;;;;;;9.70;99.90;;;;;;5032875;28;20521;-80
2022/11/25 05:37:04;;;;;;;;;;;9.70;99.90;;;;;;5032452;28;20007;-82
2022/11/25 05:39:33;;;;;;;;;;;9.60;99.90;;;;;;5036055;28;20027;-81
2022/11/25 05:42:32;;;;;;;;;;;9.60;99.90;;;;;;5011201;28;19979;-82
2022/11/25 05:45:02;;;;;;;;;;;9.60;99.90;;;;;;5035102;28;20345;-81
2022/11/25 05:47:32;;;;;;;;;;;9.60;99.90;;;;;;5034965;28;19925;-82
2022/11/25 05:50:00;;;;;;;;;;;9.50;99.90;;;;;;5051866;28;19924;-83
2022/11/25 05:52:27;;;;;;;;;;;9.60;99.90;;;;;;5036776;28;19925;-82
2022/11/25 05:54:59;;;;;;;;;;;9.60;99.90;;;;;;5037691;28;19929;-83
2022/11/25 05:57:27;;;;;;;;;;;9.60;99.90;;;;;;5045635;22;19927;-79
2022/11/25 05:59:58;;;;;;;;;;;9.60;99.90;;;;;;5052886;28;20478;-80
2022/11/25 06:02:50;;;;;;;;;;;9.90;99.90;;;;;;5049947;28;19933;-81
2022/11/25 06:05:18;;;;;;;;;;;9.60;99.90;;;;;;5060179;28;19960;-81
2022/11/25 06:07:45;;;;;;;;;;;9.60;99.90;;;;;;5068281;28;19968;-79
2022/11/25 06:10:12;;;;;;;;;;;9.60;99.90;;;;;;5072253;28;19982;-80
2022/11/25 06:12:41;;;;;;;;;;;9.60;99.90;;;;;;5071094;28;19981;-80
2022/11/25 06:15:10;;;;;;;;;;;9.70;99.90;;;;;;5072258;28;19928;-79
2022/11/25 06:17:38;;;;;;;;;;;9.60;99.90;;;;;;5070784;28;20488;-81
2022/11/25 06:20:12;;;;;;;;;;;9.60;99.90;;;;;;5073868;28;19924;-79
2022/11/25 06:22:39;;;;;;;;;;;9.60;99.90;;;;;;5063845;28;19924;-79
2022/11/25 06:25:07;;;;;;;;;;;9.60;99.90;;;;;;5060919;28;19997;-80
2022/11/25 06:27:36;;;;;;;;;;;9.60;99.90;;;;;;5067470;28;20294;-79
2022/11/25 06:30:04;;;;;;;;;;;9.50;99.90;;;;;;5058847;28;19924;-80
2022/11/25 06:32:30;;;;;;;;;;;9.40;99.90;;;;;;5068038;28;19940;-79
2022/11/25 06:35:01;;;;;;;;;;;9.40;99.90;;;;;;5059158;28;20304;-79
2022/11/25 06:37:57;;;;;;;;;;;9.40;99.90;;;;;;5057774;28;20300;-80
2022/11/25 06:40:25;;;;;;;;;;;9.40;99.90;;;;;;5068102;28;19933;-78
2022/11/25 06:42:52;;;;;;;;;;;9.40;99.90;;;;;;5069148;28;19939;-78
2022/11/25 06:45:19;;;;;;;;;;;9.40;99.90;;;;;;5069224;28;19948;-78
2022/11/25 06:47:46;;;;;;;;;;;9.40;99.90;;;;;;5065678;28;19944;-80
2022/11/25 06:50:12;;;;;;;;;;;9.40;99.90;;;;;;5070288;28;19928;-80
2022/11/25 06:52:39;;;;;;;;;;;9.50;99.90;;;;;;5073985;28;20030;-80
2022/11/25 06:55:08;;;;;;;;;;;9.50;99.90;;;;;;5077360;28;20038;-80
2022/11/25 06:57:35;;;;;;;;;;;9.40;99.90;;;;;;5077198;28;19925;-80
2022/11/25 07:00:02;;;;;;;;;;;9.50;99.90;;;;;;5073509;28;19931;-80
2022/11/25 07:02:28;;;;;;;;;;;9.40;99.90;;;;;;5079959;28;19932;-80
2022/11/25 07:04:55;;;;;;;;;;;9.50;99.90;;;;;;5079915;28;19994;-81
2022/11/25 07:07:22;;;;;;;;;;;9.50;99.90;;;;;;5073453;28;19981;-81
2022/11/25 07:09:48;;;;;;;;;;;9.60;99.90;;;;;;5077372;28;19933;-81
2022/11/25 07:12:16;;;;;;;;;;;9.50;99.90;;;;;;5074383;28;19928;-79
2022/11/25 07:14:44;;;;;;;;;;;9.50;99.90;;;;;;5061971;28;19948;-80
2022/11/25 07:17:10;;;;;;;;;;;9.50;99.90;;;;;;5072033;28;19938;-80
2022/11/25 07:19:37;;;;;;;;;;;9.60;99.90;;;;;;5076864;28;19928;-80
2022/11/25 07:22:04;;;;;;;;;;;9.50;99.90;;;;;;5091130;28;19981;-80
2022/11/25 07:24:32;;;;;;;;;;;9.50;99.90;;;;;;5074405;28;19936;-81
2022/11/25 07:26:59;;;;;;;;;;;9.40;99.90;;;;;;5074814;28;19929;-79
2022/11/25 07:29:29;;;;;;;;;;;9.40;99.90;;;;;;5085272;28;20283;-80
2022/11/25 07:31:56;;;;;;;;;;;9.20;99.90;;;;;;5079724;28;19995;-80
2022/11/25 07:34:22;;;;;;;;;;;9.20;99.90;;;;;;5079224;28;19992;-80
2022/11/25 07:36:49;;;;;;;;;;;9.00;99.90;;;;;;5079489;28;19935;-80
2022/11/25 07:39:17;;;;;;;;;;;9.00;99.90;;;;;;5073416;28;19924;-80
2022/11/25 07:41:44;;;;;;;;;;;8.90;99.90;;;;;;5073915;28;19931;-81
2022/11/25 07:44:12;;;;;;;;;;;8.90;99.90;;;;;;5068078;28;19950;-81
2022/11/25 07:47:00;;;;;;;;;;;8.90;99.90;;;;;;5070174;28;19944;-81
2022/11/25 07:49:27;;;;;;;;;;;8.90;99.90;;;;;;5072786;28;19925;-81
2022/11/25 07:51:54;;;;;;;;;;;8.90;99.90;;;;;;5068376;28;19917;-81
2022/11/25 07:54:21;;;;;;;;;;;8.90;99.90;;;;;;5074626;28;19952;-81
2022/11/25 07:56:49;;;;;;;;;;;9.00;99.90;;;;;;5069626;28;19971;-81
2022/11/25 07:59:17;;;;;;;;;;;9.00;99.90;;;;;;5072815;28;19955;-81
2022/11/25 08:01:48;;;;;;;;;;;9.00;99.90;;;;;;5077569;28;19932;-81
2022/11/25 08:04:16;;;;;;;;;;;9.10;99.90;;;;;;5069094;28;20349;-81
2022/11/25 08:06:44;;;;;;;;;;;9.20;99.90;;;;;;5071815;28;19996;-81
2022/11/25 08:09:12;;;;;;;;;;;9.30;99.90;;;;;;5076152;28;19935;-81
2022/11/25 08:11:39;;;;;;;;;;;9.40;99.90;;;;;;5081579;28;19935;-81
2022/11/25 08:14:07;;;;;;;;;;;9.40;99.90;;;;;;5067643;28;19929;-81
2022/11/25 08:16:34;;;;;;;;;;;9.50;99.90;;;;;;5070930;28;19929;-81
2022/11/25 08:19:01;;;;;;;;;;;9.50;99.90;;;;;;5078221;28;19913;-81
2022/11/25 08:21:29;;;;;;;;;;;9.50;99.90;;;;;;5079518;28;19913;-82
2022/11/25 08:23:56;;;;;;;;;;;9.50;99.90;;;;;;5094355;28;19987;-81
2022/11/25 08:26:25;;;;;;;;;;;9.50;99.90;;;;;;5075780;28;20011;-82
2022/11/25 08:28:52;;;;;;;;;;;9.50;99.90;;;;;;5072145;28;19978;-81
2022/11/25 08:31:20;;;;;;;;;;;9.50;99.90;;;;;;5068235;28;19952;-81
2022/11/25 08:33:47;;;;;;;;;;;9.50;99.90;;;;;;5080771;28;19932;-82
2022/11/25 08:36:14;;;;;;;;;;;9.60;99.90;;;;;;5080825;28;19934;-82
2022/11/25 08:38:44;;;;;;;;;;;9.60;99.90;;;;;;5067234;28;20618;-81
2022/11/25 08:41:11;;;;;;;;;;;9.70;99.90;;;;;;5063889;28;19963;-81
2022/11/25 08:43:38;;;;;;;;;;;9.70;99.90;;;;;;5068331;28;20022;-81
2022/11/25 08:46:08;;;;;;;;;;;9.70;99.90;;;;;;5072210;28;19936;-80
2022/11/25 08:48:34;;;;;;;;;;;9.70;99.90;;;;;;5073298;28;19929;-80
2022/11/25 08:51:01;;;;;;;;;;;9.70;99.90;;;;;;5072212;28;19943;-80
2022/11/25 08:53:28;;;;;;;;;;;9.70;99.90;;;;;;5059940;28;19929;-80
2022/11/25 08:55:56;;;;;;;;;;;9.80;99.90;;;;;;5071236;28;19959;-80
2022/11/25 08:58:23;;;;;;;;;;;9.80;99.90;;;;;;5067977;28;19995;-79
2022/11/25 09:00:50;;;;;;;;;;;9.90;99.90;;;;;;5063406;28;20001;-79
2022/11/25 09:03:17;;;;;;;;;;;9.90;99.90;;;;;;5061041;28;20013;-80
2022/11/25 09:05:44;;;;;;;;;;;10.00;99.90;;;;;;5068343;28;19924;-78
2022/11/25 09:08:11;;;;;;;;;;;10.10;99.90;;;;;;5062956;28;19929;-77
2022/11/25 09:10:39;;;;;;;;;;;10.10;99.90;;;;;;5059415;28;19928;-78
2022/11/25 09:13:09;;;;;;;;;;;10.40;99.90;;;;;;5063551;28;20534;-77
2022/11/25 09:15:36;;;;;;;;;;;10.30;99.90;;;;;;5057925;28;19977;-78
2022/11/25 09:18:03;;;;;;;;;;;10.50;99.90;;;;;;5068403;28;19928;-78
2022/11/25 09:20:30;;;;;;;;;;;10.70;99.90;;;;;;5057153;28;20027;-79
2022/11/25 09:22:58;;;;;;;;;;;10.90;99.90;;;;;;5070758;28;19940;-79
2022/11/25 09:25:26;;;;;;;;;;;11.10;99.90;;;;;;5067299;28;19933;-78
2022/11/25 09:27:53;;;;;;;;;;;11.30;99.90;;;;;;5063989;28;20327;-78
2022/11/25 09:30:21;;;;;;;;;;;11.50;99.90;;;;;;5068476;28;19928;-77
2022/11/25 09:32:49;;;;;;;;;;;11.60;99.90;;;;;;5064783;28;20519;-78
2022/11/25 09:35:16;;;;;;;;;;;11.60;99.90;;;;;;5070000;28;19936;-77
2022/11/25 09:37:43;;;;;;;;;;;11.70;99.90;;;;;;5070701;28;19931;-79
2022/11/25 09:40:12;;;;;;;;;;;11.80;99.90;;;;;;5071822;28;19928;-79
2022/11/25 09:48:26;;;;;;;;;;;12.00;99.90;;;;;;5059530;28;19928;-82
2022/11/25 09:50:56;;;;;;;;;;;12.10;99.90;;;;;;5066530;28;19966;-80
2022/11/25 09:53:28;;;;;;;;;;;12.10;99.90;;;;;;5068372;28;19983;-79
2022/11/25 09:55:58;;;;;;;;;;;12.10;99.90;;;;;;5065722;28;19985;-79
2022/11/25 09:58:28;;;;;;;;;;;12.10;99.90;;;;;;5068508;28;20023;-82
2022/11/25 10:00:57;;;;;;;;;;;12.20;99.90;;;;;;5063707;28;20407;-78
2022/11/25 10:03:30;;;;;;;;;;;12.20;99.90;;;;;;5067793;28;19928;-80
2022/11/25 10:06:00;;;;;;;;;;;12.30;99.90;;;;;;5070481;28;19932;-81
2022/11/25 10:08:28;;;;;;;;;;;12.50;99.90;;;;;;5070604;28;20365;-78
2022/11/25 10:10:56;;;;;;;;;;;12.80;99.90;;;;;;5067187;28;20551;-79
2022/11/25 10:13:27;;;;;;;;;;;12.90;99.90;;;;;;5061891;28;19924;-81
2022/11/25 10:15:58;;;;;;;;;;;13.00;99.90;;;;;;5071384;28;19975;-79
2022/11/25 10:18:30;;;;;;;;;;;13.10;99.90;;;;;;5069831;28;19936;-80
2022/11/25 10:20:57;;;;;;;;;;;13.00;99.90;;;;;;5069528;28;20014;-80
2022/11/25 10:23:27;;;;;;;;;;;12.90;99.90;;;;;;5075366;28;20022;-81
2022/11/25 10:25:56;;;;;;;;;;;12.80;99.90;;;;;;5075645;28;20042;-82
2022/11/25 10:28:24;;;;;;;;;;;13.10;99.90;;;;;;5077756;28;19970;-82
2022/11/25 10:30:54;;;;;;;;;;;13.10;99.90;;;;;;5069249;28;19943;-81
2022/11/25 10:33:21;;;;;;;;;;;13.30;99.90;;;;;;5067784;28;19948;-81
2022/11/25 10:35:52;;;;;;;;;;;13.40;99.90;;;;;;5073960;28;19948;-83
2022/11/25 10:38:21;;;;;;;;;;;13.50;99.90;;;;;;5064668;28;19931;-80
2022/11/25 10:40:50;;;;;;;;;;;13.60;99.90;;;;;;5068006;28;19928;-80
2022/11/25 10:43:17;;;;;;;;;;;13.70;99.90;;;;;;5073840;28;19920;-80
2022/11/25 10:45:44;;;;;;;;;;;;;;;;;;5084171;28;19958;-84
2022/11/25 10:48:16;;;;;;;;;;;13.80;99.90;;;;;;5074072;28;19932;-83
2022/11/25 10:50:50;;;;;;;;;;;13.80;99.90;;;;;;5067564;28;20377;-81
2022/11/25 10:53:21;;;;;;;;;;;13.70;99.90;;;;;;5074510;28;19924;-83
2022/11/25 10:55:59;;;;;;;;;;;13.60;99.90;;;;;;5065257;28;19932;-82
2022/11/25 10:58:27;;;;;;;;;;;13.60;99.90;;;;;;5074816;28;19934;-82
2022/11/25 11:01:02;;;;;;;;;;;13.70;99.90;;;;;;5074955;28;19954;-81
2022/11/25 11:03:28;;;;;;;;;;;13.90;99.90;;;;;;5070237;28;20397;-82
2022/11/25 11:05:55;;;;;;;;;;;14.10;99.90;;;;;;5071697;28;19929;-83
2022/11/25 11:08:24;;;;;;;;;;;14.10;99.90;;;;;;5066750;28;20106;-83
2022/11/25 11:11:06;;;;;;;;;;;14.20;99.90;;;;;;5079645;28;19924;-82
2022/11/25 11:13:33;;;;;;;;;;;14.30;99.90;;;;;;5069937;28;19951;-81
2022/11/25 11:16:00;;;;;;;;;;;14.30;99.90;;;;;;5069516;28;19924;-80
2022/11/25 11:18:27;;;;;;;;;;;14.20;99.90;;;;;;5071876;28;19928;-82
2022/11/25 11:20:55;;;;;;;;;;;14.10;99.90;;;;;;5077242;28;20023;-81
2022/11/25 11:23:24;;;;;;;;;;;14.00;99.90;;;;;;5070932;28;20019;-81
2022/11/25 11:25:56;;;;;;;;;;;13.90;99.90;;;;;;5069728;28;20095;-81
2022/11/25 11:28:25;;;;;;;;;;;13.90;99.90;;;;;;5071313;28;19925;-81
2022/11/25 11:30:55;;;;;;;;;;;13.90;99.90;;;;;;5073810;28;19954;-82
2022/11/25 11:33:28;;;;;;;;;;;14.10;99.90;;;;;;5076499;28;19963;-80
2022/11/25 11:35:58;;;;;;;;;;;14.20;99.90;;;;;;5076083;28;19929;-81
2022/11/25 11:38:31;;;;;;;;;;;14.30;99.90;;;;;;5075873;28;20027;-80
2022/11/25 11:41:03;;;;;;;;;;;14.40;99.90;;;;;;5082551;28;19933;-80
2022/11/25 11:43:47;;;;;;;;;;;14.60;99.90;;;;;;5070008;28;19924;-82
2022/11/25 11:46:18;;;;;;;;;;;14.90;99.90;;;;;;5073750;28;19929;-79
2022/11/25 11:48:50;;;;;;;;;;;15.00;99.90;;;;;;5068947;28;19924;-80
2022/11/25 11:51:23;;;;;;;;;;;15.10;99.90;;;;;;5065960;28;20066;-81
2022/11/25 11:53:57;;;;;;;;;;;15.10;99.90;;;;;;5070653;28;19955;-80
2022/11/25 11:56:29;;;;;;;;;;;15.10;99.90;;;;;;5068411;28;20304;-81
2022/11/25 11:59:12;;;;;;;;;;;15.10;99.90;;;;;;5074469;28;19951;-82
2022/11/25 12:01:46;;;;;;;;;;;15.10;99.90;;;;;;5075460;28;19925;-80
2022/11/25 12:04:17;;;;;;;;;;;15.10;99.90;;;;;;5073867;28;19931;-82
2022/11/25 12:06:47;;;;;;;;;;;15.20;99.90;;;;;;5077574;28;19951;-82
2022/11/25 12:09:18;;;;;;;;;;;15.40;99.90;;;;;;5077008;28;20019;-81
2022/11/25 12:11:48;;;;;;;;;;;15.40;99.90;;;;;;5094775;28;19932;-80
2022/11/25 12:14:21;;;;;;;;;;;15.40;99.90;;;;;;5084094;28;19924;-83
2022/11/25 12:16:50;;;;;;;;;;;15.30;99.90;;;;;;5073921;28;20084;-82
2022/11/25 12:19:20;;;;;;;;;;;15.30;99.90;;;;;;5076474;28;19928;-82
2022/11/25 12:24:29;;;;;;;;;;;15.80;99.90;;;;;;5091610;28;19935;-83
2022/11/25 12:26:58;;;;;;;;;;;15.80;99.90;;;;;;5083585;28;20003;-83
2022/11/25 12:29:31;;;;;;;;;;;15.70;99.90;;;;;;5063900;28;19977;-82
2022/11/25 12:32:07;;;;;;;;;;;15.70;99.90;;;;;;5062433;28;19940;-85
2022/11/25 12:34:37;;;;;;;;;;;15.80;99.90;;;;;;5073220;28;19956;-84
2022/11/25 12:37:05;;;;;;;;;;;15.90;99.90;;;;;;5092224;28;19928;-84
2022/11/25 12:39:37;;;;;;;;;;;15.90;99.90;;;;;;5068304;28;19928;-83
2022/11/25 12:42:05;;;;;;;;;;;15.90;99.90;;;;;;5078035;28;20337;-83
2022/11/25 12:44:35;;;;;;;;;;;15.90;99.90;;;;;;5096761;28;19967;-83
2022/11/25 12:47:02;;;;;;;;;;;15.70;99.90;;;;;;5073691;28;20365;-83
2022/11/25 12:49:31;;;;;;;;;;;15.50;99.90;;;;;;5070842;28;19928;-81
2022/11/25 12:52:11;;;;;;;;;;;15.40;99.90;;;;;;5078214;28;20073;-84
2022/11/25 12:54:56;;;;;;;;;;;15.20;99.90;;;;;;5075771;28;19967;-84
2022/11/25 12:57:38;;;;;;;;;;;14.90;99.90;;;;;;5071136;28;19916;-83
2022/11/25 13:00:12;;;;;;;;;;;14.90;99.90;;;;;;5087753;28;19931;-85
2022/11/25 13:03:01;;;;;;;;;;;14.90;99.90;;;;;;5074816;28;19928;-85
2022/11/25 13:05:41;;;;;;;;;;;14.90;99.90;;;;;;5083698;28;19932;-84
2022/11/25 13:08:15;;;;;;;;;;;14.90;99.90;;;;;;5082531;28;19924;-84
2022/11/25 13:11:07;;;;;;;;;;;14.80;99.90;;;;;;5072720;28;19930;-85
2022/11/25 13:13:42;;;;;;;;;;;14.60;99.90;;;;;;5065098;28;19940;-83
2022/11/25 13:16:10;;;;;;;;;;;14.60;99.90;;;;;;5090131;28;20031;-82
2022/11/25 13:18:39;;;;;;;;;;;14.50;99.90;;;;;;5070756;28;19924;-81
2022/11/25 13:21:07;;;;;;;;;;;14.40;99.90;;;;;;5076358;28;19935;-82
2022/11/25 13:23:51;;;;;;;;;;;14.40;99.90;;;;;;5065277;28;19936;-84
2022/11/25 13:26:48;;;;;;;;;;;14.40;99.90;;;;;;5093007;28;19974;-85
2022/11/25 13:29:34;;;;;;;;;;;14.40;99.90;;;;;;5003833;28;20004;-84
2022/11/25 13:32:24;;;;;;;;;;;14.50;99.90;;;;;;5070008;28;19928;-83
2022/11/25 13:34:51;;;;;;;;;;;14.40;99.90;;;;;;5076876;28;19924;-83
2022/11/25 13:37:32;;;;;;;;;;;14.30;99.90;;;;;;5064507;28;19932;-83
2022/11/25 13:40:14;;;;;;;;;;;14.30;99.90;;;;;;5068284;28;19928;-84
2022/11/25 13:42:44;;;;;;;;;;;14.50;99.90;;;;;;5074816;28;19943;-83
2022/11/25 13:45:24;;;;;;;;;;;14.10;99.90;;;;;;5089304;28;19940;-83
2022/11/25 13:47:54;;;;;;;;;;;14.10;99.90;;;;;;5065248;28;20056;-84
2022/11/25 13:50:23;;;;;;;;;;;14.00;99.90;;;;;;5076095;28;19938;-83
2022/11/25 13:52:58;;;;;;;;;;;14.00;99.90;;;;;;5069097;28;19977;-82
2022/11/25 13:55:30;;;;;;;;;;;14.00;99.90;;;;;;5075986;28;19942;-85
2022/11/25 13:58:02;;;;;;;;;;;13.90;99.90;;;;;;5073797;28;19928;-83
2022/11/25 14:00:59;;;;;;;;;;;13.90;99.90;;;;;;5093251;28;19935;-85
2022/11/25 14:03:45;;;;;;;;;;;13.80;99.90;;;;;;5048168;28;19928;-84
2022/11/25 14:06:22;;;;;;;;;;;13.80;99.90;;;;;;5072145;28;19935;-84
2022/11/25 14:08:54;;;;;;;;;;;13.70;99.90;;;;;;5072963;28;19981;-83
2022/11/25 14:11:32;;;;;;;;;;;13.70;99.90;;;;;;5085809;28;19924;-84
2022/11/25 14:14:20;;;;;;;;;;;13.70;99.90;;;;;;5087397;28;20027;-85
2022/11/25 14:16:55;;;;;;;;;;;13.50;99.90;;;;;;5037373;28;20430;-83
2022/11/25 14:19:37;;;;;;;;;;;13.50;99.90;;;;;;5079968;28;20058;-85
2022/11/25 14:22:11;;;;;;;;;;;13.40;99.90;;;;;;5068951;28;19981;-84
2022/11/25 14:24:40;;;;;;;;;;;13.30;99.90;;;;;;5070485;28;19938;-83
2022/11/25 14:27:13;;;;;;;;;;;13.30;99.90;;;;;;5069774;28;19929;-83
2022/11/25 14:29:42;;;;;;;;;;;13.20;99.90;;;;;;5092380;28;20587;-84
2022/11/25 14:32:13;;;;;;;;;;;13.20;99.90;;;;;;5081580;28;20006;-83
2022/11/25 14:34:41;;;;;;;;;;;13.20;99.90;;;;;;5066008;28;20105;-84
2022/11/25 18:42:31;;;;;;;;;;;10.40;99.90;;;;;;5096192;28;19939;-80
2022/11/25 18:44:59;;;;;;;;;;;10.50;99.90;;;;;;5099833;28;19940;-80
2022/11/25 18:47:30;;;;;;;;;;;10.50;99.90;;;;;;5084772;28;19928;-80
2022/11/25 18:49:57;;;;;;;;;;;10.50;99.90;;;;;;5085902;28;19983;-80
2022/11/25 18:52:24;;;;;;;;;;;10.40;99.90;;;;;;5083981;28;19928;-80
2022/11/25 18:54:51;;;;;;;;;;;10.30;99.90;;;;;;5085568;28;19924;-78